Time;durP1;ratioP1;P1;durP2;ratioP2;P2;SDS_P1;SDS_P2;PMS_P1;PMS_P2;Temp;Humidity;BMP_temperature;BMP_pressure;BME280_temperature;BME280_humidity;BME280_pressure;Samples;Min_cycle;Max_cycle;Signal;HPM_P1;HPM_P2
2022/07/13 00:00:44;;;;;;;6.18;3.90;;;;;;;9.97;100.00;95477.81;5065562;28;20618;-69
2022/07/13 00:03:11;;;;;;;4.80;4.00;;;;;;;9.97;100.00;95462.22;5083697;28;20036;-69
2022/07/13 00:05:38;;;;;;;16.05;4.90;;;;;;;9.92;100.00;95464.63;5083644;28;20055;-69
2022/07/13 00:08:05;;;;;;;4.18;3.67;;;;;;;9.91;100.00;95463.06;5083296;28;20036;-69
2022/07/13 00:10:32;;;;;;;6.05;4.40;;;;;;;9.93;100.00;95466.25;5083249;28;20714;-69
2022/07/13 00:12:59;;;;;;;5.38;4.15;;;;;;;9.92;100.00;95464.63;5083774;28;20044;-68
2022/07/13 00:15:26;;;;;;;6.75;4.03;;;;;;;9.92;100.00;95460.25;5084123;28;20143;-69
2022/07/13 00:17:53;;;;;;;6.78;4.85;;;;;;;9.89;100.00;95459.88;5082828;28;20694;-69
2022/07/13 00:20:20;;;;;;;7.45;5.25;;;;;;;9.65;100.00;95423.22;5083667;28;20559;-69
2022/07/13 00:22:47;;;;;;;11.55;5.07;;;;;;;9.81;100.00;95447.13;5064300;28;20040;-69
2022/07/13 00:25:13;;;;;;;6.68;4.72;;;;;;;9.82;100.00;95449.50;5086774;28;20039;-68
2022/07/13 00:27:40;;;;;;;7.90;4.28;;;;;;;9.86;100.00;95449.88;5085431;28;20488;-69
2022/07/13 00:30:08;;;;;;;8.57;4.72;;;;;;;9.80;100.00;95461.94;5083452;28;20044;-69
2022/07/13 00:32:35;;;;;;;5.72;4.45;;;;;;;9.74;100.00;95468.78;5082129;28;20040;-69
2022/07/13 00:35:02;;;;;;;6.25;4.22;;;;;;;9.75;100.00;95470.34;5082427;28;20612;-69
2022/07/13 00:37:29;;;;;;;4.18;3.70;;;;;;;9.80;100.00;95474.16;5067245;28;20036;-69
2022/07/13 00:39:56;;;;;;;5.30;3.60;;;;;;;9.80;100.00;95461.94;5083215;28;20040;-69
2022/07/13 00:42:23;;;;;;;6.60;3.90;;;;;;;9.83;100.00;95465.91;5066252;28;20236;-70
2022/07/13 00:44:50;;;;;;;7.78;4.97;;;;;;;9.85;100.00;95456.09;5082345;28;20036;-70
2022/07/13 00:47:17;;;;;;;4.70;3.60;;;;;;;9.87;100.00;95457.47;5081720;28;20044;-69
2022/07/13 00:49:44;;;;;;;5.30;3.95;;;;;;;9.91;100.00;95455.25;5062725;28;20422;-69
2022/07/13 00:52:12;;;;;;;7.05;3.95;;;;;;;9.83;100.00;95451.13;5082649;28;20046;-68
2022/07/13 00:54:42;;;;;;;4.25;3.85;;;;;;;9.89;100.00;95454.69;5080304;28;20044;-69
2022/07/13 00:57:13;;;;;;;7.28;4.60;;;;;;;9.95;100.00;95459.81;5082087;28;20731;-69
2022/07/13 00:59:41;;;;;;;6.53;3.70;;;;;;;9.98;100.00;95458.59;5065128;28;20122;-70
2022/07/13 01:02:08;;;;;;;5.43;3.55;;;;;;;10.03;100.00;95456.19;5064140;28;20048;-68
2022/07/13 01:04:36;;;;;;;5.95;4.25;;;;;;;10.00;100.00;95455.81;5082768;28;20044;-69
2022/07/13 01:07:03;;;;;;;5.10;3.90;;;;;;;9.98;100.00;95458.59;5076054;28;20039;-69
2022/07/13 01:09:30;;;;;;;6.22;4.38;;;;;;;9.97;100.00;95454.41;5063235;28;20124;-69
2022/07/13 01:11:58;;;;;;;7.20;3.65;;;;;;;9.91;100.00;95458.66;5082821;28;20036;-69
2022/07/13 01:14:25;;;;;;;6.35;4.30;;;;;;;9.79;100.00;95454.34;5062932;28;20040;-69
2022/07/13 01:16:54;;;;;;;5.00;3.95;;;;;;;9.72;100.00;95465.59;5062555;28;20589;-69
2022/07/13 01:19:21;;;;;;;5.30;3.78;;;;;;;9.55;100.00;95456.69;5062041;28;20511;-69
2022/07/13 01:21:55;;;;;;;9.90;4.28;;;;;;;9.43;100.00;95453.13;5082336;28;20135;-72
2022/07/13 01:24:22;;;;;;;5.57;4.45;;;;;;;9.34;100.00;95452.56;5084361;28;20444;-73
2022/07/13 01:26:50;;;;;;;5.68;4.15;;;;;;;9.24;100.00;95455.63;5062986;28;20044;-73
2022/07/13 01:29:17;;;;;;;7.30;4.90;;;;;;;9.23;100.00;95446.22;5063169;28;20509;-73
2022/07/13 01:31:43;;;;;;;5.75;4.72;;;;;;;9.16;100.00;95453.25;5070348;28;20138;-73
2022/07/13 01:34:11;;;;;;;5.63;4.65;;;;;;;9.07;100.00;95452.69;5062972;28;20429;-73
2022/07/13 01:36:41;;;;;;;9.63;4.72;;;;;;;8.94;100.00;95445.75;5080757;28;20937;-73
2022/07/13 01:39:09;;;;;;;9.10;5.03;;;;;;;9.04;100.00;95455.72;5080863;28;20532;-73
2022/07/13 01:41:36;;;;;;;5.50;4.40;;;;;;;8.98;100.00;95457.34;5054676;28;20040;-73
2022/07/13 01:44:03;;;;;;;6.53;4.90;;;;;;;8.63;100.00;95420.47;5087963;28;20036;-72
2022/07/13 01:46:30;;;;;;;7.00;4.78;;;;;;;8.75;100.00;95451.78;5062725;28;20048;-73
2022/07/13 01:48:58;;;;;;;5.18;4.55;;;;;;;8.67;100.00;95452.03;5061091;28;20093;-73
2022/07/13 01:51:25;;;;;;;8.35;5.20;;;;;;;8.55;100.00;95444.03;5061203;28;20159;-73
2022/07/13 01:53:55;;;;;;;7.22;4.70;;;;;;;8.51;100.00;95442.84;5063119;28;20439;-73
2022/07/13 01:56:22;;;;;;;6.28;5.00;;;;;;;8.55;100.00;95433.66;5076926;28;20083;-73
2022/07/13 01:58:49;;;;;;;6.30;4.80;;;;;;;8.59;100.00;95446.03;5060263;28;20067;-72
2022/07/13 02:01:16;;;;;;;9.82;6.15;;;;;;;8.43;100.00;95428.31;5062275;28;20048;-72
2022/07/13 02:03:46;;;;;;;6.15;5.13;;;;;;;8.48;100.00;95444.06;5082781;28;20127;-73
2022/07/13 02:06:13;;;;;;;6.80;5.03;;;;;;;8.40;100.00;95441.66;5064281;28;20138;-73
2022/07/13 02:08:40;;;;;;;9.05;4.85;;;;;;;8.40;100.00;95447.63;5078672;28;20032;-73
2022/07/13 02:11:17;;;;;;;5.65;4.82;;;;;;;8.32;100.00;95444.44;5062189;28;20052;-73
2022/07/13 02:13:45;;;;;;;5.70;5.15;;;;;;;8.37;100.00;95442.03;5063380;28;20139;-72
2022/07/13 02:16:16;;;;;;;6.78;5.70;;;;;;;8.36;100.00;95440.47;5080013;28;20044;-72
2022/07/13 02:18:43;;;;;;;6.50;5.13;;;;;;;8.24;100.00;95438.44;5064409;28;20620;-73
2022/07/13 02:21:11;;;;;;;7.38;5.13;;;;;;;8.29;100.00;95447.47;5093486;27;20048;-72
2022/07/13 02:23:38;;;;;;;8.68;5.22;;;;;;;8.20;100.00;95452.84;5062558;28;20079;-73
2022/07/13 02:26:05;;;;;;;5.95;5.28;;;;;;;8.10;100.00;95441.25;5080540;28;20043;-74
2022/07/13 02:28:32;;;;;;;6.65;5.55;;;;;;;8.11;100.00;95453.25;5065277;28;20046;-73
2022/07/13 02:30:59;;;;;;;9.88;6.70;;;;;;;8.06;100.00;95451.25;5063935;28;20075;-73
2022/07/13 02:33:26;;;;;;;7.90;6.10;;;;;;;8.08;100.00;95449.25;5058592;28;20109;-73
2022/07/13 02:35:53;;;;;;;7.15;6.43;;;;;;;8.13;100.00;95452.03;5084916;28;20040;-73
2022/07/13 02:38:20;;;;;;;10.63;6.75;;;;;;;8.18;100.00;95452.25;5084979;28;20425;-74
2022/07/13 02:40:47;;;;;;;7.00;6.28;;;;;;;8.17;100.00;95447.25;5075468;28;20121;-73
2022/07/13 02:43:16;;;;;;;7.28;5.72;;;;;;;8.19;100.00;95450.44;5083014;28;20429;-73
2022/07/13 02:45:43;;;;;;;9.60;5.82;;;;;;;8.23;100.00;95447.25;5066419;28;21531;-73
2022/07/13 02:48:10;;;;;;;7.60;6.35;;;;;;;8.21;100.00;95446.66;5062460;28;20039;-73
2022/07/13 02:50:37;;;;;;;10.40;6.47;;;;;;;8.17;100.00;95440.25;5080291;28;20520;-73
2022/07/13 02:53:06;;;;;;;6.68;5.68;;;;;;;8.04;100.00;95433.28;5061698;28;20481;-73
2022/07/13 02:55:35;;;;;;;8.50;6.43;;;;;;;7.99;100.00;95425.28;5061519;28;21088;-73
2022/07/13 02:58:03;;;;;;;8.40;6.30;;;;;;;8.05;100.00;95439.28;5060587;28;20040;-73
2022/07/13 03:00:30;;;;;;;5.80;5.20;;;;;;;8.02;100.00;95440.47;5049327;28;20444;-73
2022/07/13 03:02:58;;;;;;;6.25;5.50;;;;;;;8.05;100.00;95454.84;5038869;28;20601;-72
2022/07/13 03:05:25;;;;;;;11.52;5.53;;;;;;;8.02;100.00;95444.88;5022760;28;20053;-72
2022/07/13 03:07:54;;;;;;;8.70;6.25;;;;;;;7.93;100.00;95435.69;5038770;28;20036;-73
2022/07/13 03:10:22;;;;;;;8.63;5.65;;;;;;;8.07;100.00;95452.84;5038468;28;20045;-73
2022/07/13 03:12:52;;;;;;;7.60;6.10;;;;;;;8.05;100.00;95449.66;5023848;28;20378;-73
2022/07/13 03:15:19;;;;;;;6.20;5.60;;;;;;;8.02;100.00;95434.47;5039301;28;20071;-73
2022/07/13 03:17:47;;;;;;;9.15;5.22;;;;;;;8.09;100.00;95450.84;5025647;28;20361;-72
2022/07/13 03:20:14;;;;;;;7.97;5.70;;;;;;;8.17;100.00;95452.44;5022316;28;20041;-73
2022/07/13 03:22:41;;;;;;;8.50;6.15;;;;;;;8.13;100.00;95452.03;5038304;28;20045;-72
2022/07/13 03:25:09;;;;;;;7.10;5.50;;;;;;;8.07;100.00;95457.22;5022620;28;20041;-74
2022/07/13 03:27:36;;;;;;;8.32;5.80;;;;;;;8.09;100.00;95453.44;5038676;28;20045;-73
2022/07/13 03:30:05;;;;;;;8.73;4.60;;;;;;;8.14;100.00;95448.47;5038353;28;20099;-73
2022/07/13 03:32:32;;;;;;;8.13;4.72;;;;;;;8.21;100.00;95453.63;5025003;28;20528;-72
2022/07/13 03:34:59;;;;;;;7.00;4.88;;;;;;;8.26;100.00;95447.84;5025378;28;20446;-72
2022/07/13 03:37:27;;;;;;;11.55;4.93;;;;;;;8.28;100.00;95443.25;5037670;28;20049;-72
2022/07/13 03:39:54;;;;;;;14.75;5.43;;;;;;;8.30;100.00;95446.44;5038958;28;20128;-73
2022/07/13 03:42:22;;;;;;;8.60;4.82;;;;;;;8.40;100.00;95439.06;5040759;28;20075;-73
2022/07/13 03:44:50;;;;;;;11.27;5.75;;;;;;;8.52;100.00;95455.63;5039656;28;20045;-73
2022/07/13 03:47:18;;;;;;;8.00;5.18;;;;;;;8.63;100.00;95450.84;5057332;28;20049;-73
2022/07/13 03:49:45;;;;;;;6.45;4.60;;;;;;;8.66;100.00;95447.81;5038895;28;20136;-73
2022/07/13 03:52:12;;;;;;;7.13;5.38;;;;;;;8.83;100.00;95456.78;5043787;28;20049;-73
2022/07/13 03:54:39;;;;;;;6.95;4.38;;;;;;;8.86;100.00;95451.19;5052823;28;20045;-73
2022/07/13 03:57:07;;;;;;;11.30;5.63;;;;;;;9.01;100.00;95457.94;5041149;28;20052;-73
2022/07/13 03:59:34;;;;;;;6.53;5.82;;;;;;;9.16;100.00;95458.44;5043379;28;20043;-73
2022/07/13 04:02:01;;;;;;;9.02;5.38;;;;;;;9.27;100.00;95447.41;5049530;28;20077;-73
2022/07/13 04:04:29;;;;;;;9.35;5.38;;;;;;;9.44;100.00;95458.13;5065154;28;20135;-73
2022/07/13 04:06:58;;;;;;;11.20;5.93;;;;;;;9.64;100.00;95458.03;5083358;28;20478;-73
2022/07/13 04:09:25;;;;;;;9.68;5.15;;;;;;;9.73;100.00;95445.56;5064577;28;20420;-73
2022/07/13 04:11:52;;;;;;;12.55;5.90;;;;;;;9.89;100.00;95454.69;5086503;28;20050;-73
2022/07/13 04:14:20;;;;;;;6.85;5.65;;;;;;;10.00;100.00;95456.59;5064712;28;20048;-73
2022/07/13 04:16:47;;;;;;;13.98;6.45;;;;;;;10.13;100.00;95450.47;5067540;28;20496;-73
2022/07/13 04:19:15;;;;;;;9.20;5.90;;;;;;;10.38;100.00;95463.53;5067207;28;20123;-73
2022/07/13 04:21:43;;;;;;;10.10;5.82;;;;;;;10.49;100.00;95460.22;5070554;28;20470;-73
2022/07/13 04:24:11;;;;;;;7.82;5.38;;;;;;;10.62;100.00;95455.91;5064011;28;20524;-73
2022/07/13 04:26:38;;;;;;;8.93;5.25;;;;;;;10.82;100.00;95464.31;5064681;28;20055;-73
2022/07/13 04:29:05;;;;;;;6.70;4.75;;;;;;;11.04;100.00;95471.72;5062559;28;20535;-73
2022/07/13 04:31:32;;;;;;;8.13;4.75;;;;;;;11.14;100.00;95458.94;5064814;28;20105;-74
2022/07/13 04:33:59;;;;;;;5.97;4.63;;;;;;;11.42;100.00;95473.28;5064249;28;20105;-70
2022/07/13 04:36:27;;;;;;;6.72;4.47;;;;;;;11.54;100.00;95471.50;5063941;28;20417;-74
2022/07/13 04:38:54;;;;;;;5.03;4.10;;;;;;;11.63;100.00;95470.19;5047754;28;20043;-73
2022/07/13 04:41:21;;;;;;;7.13;4.70;;;;;;;11.72;100.00;95460.22;5082377;28;20048;-71
2022/07/13 04:43:50;;;;;;;8.07;5.13;;;;;;;11.76;100.00;95468.41;5066470;28;20048;-68
2022/07/13 04:46:18;;;;;;;6.40;4.82;;;;;;;11.86;100.00;95474.66;5087741;28;20062;-68
2022/07/13 04:48:48;;;;;;;7.28;4.90;;;;;;;11.81;100.00;95471.13;5063467;28;20716;-68
2022/07/13 04:51:15;;;;;;;8.88;5.03;;;;;;;11.88;100.00;95471.84;5067184;28;20062;-67
2022/07/13 04:53:45;;;;;;;7.45;4.75;;;;;;;12.00;100.00;95470.09;5062872;28;20067;-69
2022/07/13 04:56:13;;;;;;;6.30;4.40;;;;;;;12.09;100.00;95477.59;5062523;28;20097;-68
2022/07/13 04:58:42;;;;;;;6.60;4.20;;;;;;;12.21;100.00;95481.03;5063355;28;20117;-68
2022/07/13 05:01:09;;;;;;;7.60;5.15;;;;;;;12.15;100.00;95472.25;5063361;28;20460;-68
2022/07/13 05:04:02;;;;;;;6.40;3.67;;;;;;;12.24;100.00;95480.56;5057768;28;20044;-68
2022/07/13 05:06:30;;;;;;;6.10;5.07;;;;;;;12.39;100.00;95477.53;5081014;28;20529;-68
2022/07/13 05:08:58;;;;;;;8.27;4.18;;;;;;;12.58;100.00;95475.59;5061748;28;20059;-68
2022/07/13 05:11:25;;;;;;;5.45;4.10;;;;;;;12.73;100.00;95478.56;5060724;28;20046;-68
2022/07/13 05:13:53;;;;;;;8.50;4.32;;;;;;;12.78;99.82;95483.91;5062112;28;20059;-68
2022/07/13 05:16:21;;;;;;;7.60;4.25;;;;;;;12.96;99.25;95479.56;5064132;28;20156;-68
2022/07/13 05:18:48;;;;;;;7.70;3.90;;;;;;;13.00;98.42;95478.09;5062112;28;20083;-69
2022/07/13 05:21:21;;;;;;;7.40;3.75;;;;;;;13.07;98.84;95481.38;5062962;28;20056;-69
2022/07/13 05:23:48;;;;;;;8.98;3.83;;;;;;;13.33;98.93;95492.38;5061580;28;20080;-68
2022/07/13 05:26:15;;;;;;;10.52;3.90;;;;;;;13.41;99.11;95481.53;5063182;28;20139;-68
2022/07/13 05:28:42;;;;;;;11.70;4.35;;;;;;;13.63;99.05;95488.75;5082374;28;20085;-69
2022/07/13 05:31:13;;;;;;;8.45;3.33;;;;;;;13.73;98.22;95481.09;5061684;28;20564;-68
2022/07/13 05:33:40;;;;;;;12.10;4.18;;;;;;;13.81;97.15;95478.09;5089632;28;20475;-68
2022/07/13 05:36:14;;;;;;;7.87;3.67;;;;;;;13.91;98.05;95488.72;5072274;28;20048;-68
2022/07/13 05:38:43;;;;;;;4.10;3.15;;;;;;;13.98;94.68;95487.81;5064345;28;20055;-68
2022/07/13 05:41:11;;;;;;;7.25;3.50;;;;;;;14.04;95.17;95486.84;5081261;28;20082;-68
2022/07/13 05:43:40;;;;;;;7.80;3.30;;;;;;;14.11;94.92;95487.50;5052678;28;20055;-69
2022/07/13 05:46:10;;;;;;;4.50;2.90;;;;;;;14.19;93.91;95489.75;5065128;28;20790;-69
2022/07/13 05:48:37;;;;;;;6.28;3.38;;;;;;;14.24;94.42;95492.44;5062299;28;20472;-69
2022/07/13 05:51:05;;;;;;;5.88;3.38;;;;;;;14.38;93.32;95492.13;5064096;28;20134;-69
2022/07/13 05:53:52;;;;;;;8.27;3.08;;;;;;;14.45;94.18;95482.28;5088580;28;20591;-69
2022/07/13 05:56:19;;;;;;;10.38;4.22;;;;;;;14.64;93.88;95488.06;5067862;28;20075;-68
2022/07/13 05:58:46;;;;;;;6.13;2.75;;;;;;;14.58;91.41;95486.44;5085916;28;20036;-69
2022/07/13 06:01:12;;;;;;;4.82;3.10;;;;;;;14.69;92.38;95488.16;5080064;28;20199;-68
2022/07/13 06:03:39;;;;;;;4.20;2.83;;;;;;;14.76;89.83;95474.88;5057710;28;20064;-69
2022/07/13 06:06:06;;;;;;;3.53;2.00;;;;;;;14.95;88.64;95485.91;5065375;28;20542;-69
2022/07/13 06:08:33;;;;;;;7.55;3.03;;;;;;;15.08;88.54;95475.84;5062860;28;20055;-68
2022/07/13 06:11:01;;;;;;;7.70;1.70;;;;;;;15.17;87.60;95483.31;5087284;28;20066;-69
2022/07/13 06:13:28;;;;;;;5.53;2.15;;;;;;;15.31;85.71;95468.78;5080185;28;20044;-69
2022/07/13 06:15:57;;;;;;;7.03;2.13;;;;;;;15.40;84.09;95467.31;5086307;28;20429;-69
2022/07/13 06:18:24;;;;;;;2.90;2.05;;;;;;;15.64;80.77;95467.03;5083372;28;20645;-69
2022/07/13 06:20:52;;;;;;;13.55;2.00;;;;;;;15.73;83.23;95470.00;5058284;28;20036;-69
2022/07/13 06:23:21;;;;;;;2.65;1.73;;;;;;;15.76;80.28;95470.34;5065592;28;20055;-69
2022/07/13 06:25:49;;;;;;;6.63;2.05;;;;;;;15.90;81.03;95464.69;5074288;28;20154;-69
2022/07/13 06:28:16;;;;;;;7.40;1.63;;;;;;;16.12;80.80;95473.31;5066711;28;20043;-69
2022/07/13 06:30:43;;;;;;;2.30;1.67;;;;;;;16.29;78.91;95467.91;5062065;28;20051;-70
2022/07/13 06:33:10;;;;;;;7.70;2.00;;;;;;;16.33;78.69;95460.31;5080553;28;20029;-69
2022/07/13 06:35:37;;;;;;;12.90;3.03;;;;;;;16.60;78.25;95468.94;5080561;28;20039;-66
2022/07/13 06:38:04;;;;;;;2.95;1.98;;;;;;;16.59;76.04;95469.97;5079797;28;20054;-68
2022/07/13 06:40:31;;;;;;;6.13;1.60;;;;;;;16.55;76.77;95457.59;5086605;28;20036;-70
2022/07/13 06:42:58;;;;;;;4.07;1.52;;;;;;;16.66;75.72;95471.63;5040250;28;20681;-70
2022/07/13 06:45:25;;;;;;;3.95;1.85;;;;;;;16.73;76.45;95466.94;5085192;28;20044;-69
2022/07/13 06:47:52;;;;;;;6.05;2.00;;;;;;;16.86;75.94;95466.50;5080530;28;20052;-70
2022/07/13 06:50:20;;;;;;;2.33;1.58;;;;;;;16.87;76.06;95457.56;5078993;28;20070;-69
2022/07/13 06:52:47;;;;;;;6.35;1.63;;;;;;;16.94;76.51;95452.06;5041127;28;20048;-69
2022/07/13 06:55:15;;;;;;;5.85;2.70;;;;;;;16.98;77.17;95453.94;5080235;28;20043;-69
2022/07/13 06:57:43;;;;;;;7.03;1.92;;;;;;;17.25;76.04;95458.28;5078374;28;20070;-70
2022/07/13 07:00:11;;;;;;;4.43;1.73;;;;;;;17.30;74.99;95455.63;5082028;28;20062;-69
2022/07/13 07:02:38;;;;;;;8.02;3.25;;;;;;;17.49;74.89;95457.81;5075007;28;20044;-69
2022/07/13 07:05:09;;;;;;;3.47;1.95;;;;;;;17.57;75.18;95449.41;5081421;28;20048;-69
2022/07/13 07:07:37;;;;;;;3.40;2.13;;;;;;;17.88;73.18;95454.75;5081014;28;20685;-70
2022/07/13 07:10:04;;;;;;;4.78;1.80;;;;;;;18.02;71.08;95455.81;5082548;28;20135;-70
2022/07/13 07:12:31;;;;;;;3.65;1.67;;;;;;;18.08;71.82;95449.53;5078627;28;20472;-68
2022/07/13 07:14:58;;;;;;;5.07;2.67;;;;;;;18.19;73.44;95449.53;5083947;28;20048;-70
2022/07/13 07:17:25;;;;;;;3.88;1.55;;;;;;;18.25;71.67;95443.19;5079356;28;20070;-69
2022/07/13 07:20:00;;;;;;;1.77;1.20;;;;;;;18.50;72.21;95443.16;5081528;28;20123;-69
2022/07/13 07:22:27;;;;;;;1.75;1.20;;;;;;;18.86;71.76;95464.25;5080866;28;20037;-68
2022/07/13 07:24:54;;;;;;;4.05;2.00;;;;;;;19.02;70.03;95461.59;5080735;28;20055;-69
2022/07/13 07:27:25;;;;;;;2.78;1.30;;;;;;;18.96;67.90;95452.09;5061702;28;20070;-69
2022/07/13 07:29:52;;;;;;;8.07;1.83;;;;;;;18.96;68.41;95457.38;5088246;28;20066;-68
2022/07/13 07:32:19;;;;;;;2.72;1.42;;;;;;;19.08;66.96;95460.50;5077614;28;20580;-69
2022/07/13 07:34:46;;;;;;;2.60;1.05;;;;;;;19.33;65.49;95478.09;5062830;28;20475;-69
2022/07/13 07:37:13;;;;;;;1.98;1.42;;;;;;;19.52;67.54;95459.81;5081659;28;20044;-69
2022/07/13 07:39:41;;;;;;;4.47;1.50;;;;;;;19.70;66.12;95465.50;5060705;28;20036;-69
2022/07/13 07:42:07;;;;;;;3.28;1.45;;;;;;;19.74;65.43;95461.31;5067817;28;20115;-69
2022/07/13 07:47:51;;;;;;;3.30;1.42;;;;;;;19.75;60.79;95462.88;960580;22;20383;-69
2022/07/13 07:50:28;;;;;;;1.38;1.00;;;;;;;19.85;58.35;95452.25;5065590;28;20041;-71
2022/07/13 07:53:04;;;;;;;3.95;1.40;;;;;;;20.11;55.87;95449.41;5061037;28;20040;-71
2022/07/13 07:55:31;;;;;;;3.05;1.25;;;;;;;20.26;53.01;95446.66;5039189;28;20033;-71
2022/07/13 07:58:14;;;;;;;7.07;1.45;;;;;;;20.36;52.65;95441.28;5040741;28;20048;-72
2022/07/13 08:00:41;;;;;;;2.60;1.45;;;;;;;20.56;51.26;95439.53;5041355;28;20425;-71
2022/07/13 08:03:09;;;;;;;6.18;1.38;;;;;;;20.70;50.92;95434.41;5045599;28;20049;-71
2022/07/13 08:05:36;;;;;;;4.32;0.80;;;;;;;20.81;51.57;95439.31;5045570;28;20595;-71
2022/07/13 08:08:07;;;;;;;4.40;1.70;;;;;;;21.03;50.54;95431.94;5021850;28;20053;-71
2022/07/13 08:10:46;;;;;;;1.67;1.25;;;;;;;20.91;49.58;95434.97;5027780;28;20573;-71
2022/07/13 08:13:47;;;;;;;3.85;1.20;;;;;;;21.09;50.51;95436.88;5027743;28;20040;-71
2022/07/13 08:16:15;;;;;;;5.15;1.38;;;;;;;21.39;50.24;95434.94;5032489;28;20056;-71
2022/07/13 08:19:18;;;;;;;5.60;1.05;;;;;;;21.74;49.98;95433.69;5048413;28;20129;-72
2022/07/13 08:22:11;;;;;;;1.70;1.25;;;;;;;21.62;47.41;95427.25;5045090;28;20055;-71
2022/07/13 08:24:38;;;;;;;6.53;1.13;;;;;;;21.58;46.65;95432.34;5016951;28;20037;-72
2022/07/13 08:27:08;;;;;;;3.50;0.60;;;;;;;21.72;48.19;95437.72;5023190;28;20040;-71
2022/07/13 08:29:42;;;;;;;1.70;0.65;;;;;;;22.01;45.41;95436.78;5030631;28;20041;-72
2022/07/13 08:32:39;;;;;;;36.55;2.15;;;;;;;21.73;45.53;95428.69;5031008;28;20060;-71
2022/07/13 08:40:46;;;;;;;2.50;0.90;;;;;;;22.02;45.42;95435.69;5042581;28;20042;-70
2022/07/13 08:43:16;;;;;;;6.85;1.23;;;;;;;22.06;44.69;95431.41;5052373;28;20346;-72
2022/07/13 08:45:54;;;;;;;1.45;0.55;;;;;;;22.09;44.21;95430.81;5044860;28;20136;-71
2022/07/13 08:48:31;;;;;;;3.00;0.93;;;;;;;22.33;42.97;95431.50;5044324;28;20338;-70
2022/07/13 08:51:32;;;;;;;1.40;0.90;;;;;;;22.33;41.82;95426.22;5002756;28;20037;-71
2022/07/13 08:54:26;;;;;;;3.72;0.85;;;;;;;22.17;41.62;95432.81;5012382;28;20051;-72
2022/07/13 08:56:53;;;;;;;8.93;0.82;;;;;;;22.02;42.65;95436.50;5056135;28;20060;-71
2022/07/13 08:59:33;;;;;;;4.55;0.70;;;;;;;22.04;43.08;95428.22;5038839;28;20045;-71
2022/07/13 09:02:09;;;;;;;3.05;0.70;;;;;;;22.06;41.22;95434.06;5065646;28;20041;-71
2022/07/13 09:04:37;;;;;;;3.13;0.80;;;;;;;21.95;41.54;95442.16;5068078;28;20033;-71
2022/07/13 09:07:10;;;;;;;2.50;1.08;;;;;;;21.74;40.93;95440.88;5060790;28;20080;-70
2022/07/13 09:09:38;;;;;;;4.65;1.42;;;;;;;21.80;41.69;95438.94;5057052;28;20033;-71
2022/07/13 09:12:38;;;;;;;1.08;0.60;;;;;;;21.98;41.72;95424.09;5023510;28;20045;-71
2022/07/13 09:15:12;;;;;;;1.83;0.50;;;;;;;22.24;41.31;95427.94;5044078;28;20057;-73
2022/07/13 09:18:25;;;;;;;1.27;0.77;;;;;;;22.60;38.31;95434.50;5050022;23;20079;-72
2022/07/13 09:21:09;;;;;;;1.70;0.70;;;;;;;22.77;37.43;95428.66;5045196;28;20086;-72
2022/07/13 09:23:56;;;;;;;5.18;0.70;;;;;;;23.34;37.60;95437.13;5041509;28;20072;-72
2022/07/13 09:26:38;;;;;;;14.50;7.85;;;;;;;23.82;34.87;95435.88;5039529;28;20140;-71
2022/07/13 09:29:15;;;;;;;1.23;0.85;;;;;;;24.04;35.60;95438.56;5031416;28;20043;-72
2022/07/13 09:31:53;;;;;;;1.50;0.82;;;;;;;23.90;37.04;95442.38;5044072;28;20047;-72
2022/07/13 09:38:03;;;;;;;2.83;0.40;;;;;;;25.48;30.34;95434.91;5045747;28;20072;-72
2022/07/13 09:41:19;;;;;;;1.67;0.40;;;;;;;26.04;31.58;95435.13;5051858;28;20664;-71
2022/07/13 09:47:06;;;;;;;4.65;1.98;;;;;;;24.87;33.06;95434.69;5041490;28;20056;-72
2022/07/13 09:49:44;;;;;;;8.20;2.88;;;;;;;24.57;32.27;95444.25;5038699;28;20529;-73
2022/07/13 09:52:16;;;;;;;5.93;3.33;;;;;;;23.95;33.40;95418.28;5021628;28;20064;-72
2022/07/13 09:54:50;;;;;;;3.08;0.82;;;;;;;24.28;32.69;95431.38;5036186;28;20763;-73
2022/07/13 09:57:47;;;;;;;2.55;1.45;;;;;;;24.64;31.39;95436.63;5038160;28;20124;-72
2022/07/13 10:00:28;;;;;;;2.50;0.90;;;;;;;25.03;30.99;95427.09;5040785;28;20037;-73
2022/07/13 10:02:56;;;;;;;3.25;2.00;;;;;;;25.81;31.53;95433.69;5043275;28;20055;-73
2022/07/13 10:05:24;;;;;;;2.05;1.20;;;;;;;25.73;28.99;95436.03;5035999;28;20446;-73
2022/07/13 10:07:52;;;;;;;3.13;1.10;;;;;;;25.57;28.51;95416.25;5042175;28;20044;-73
2022/07/13 10:10:30;;;;;;;1.73;0.30;;;;;;;25.23;29.11;95423.06;5040342;28;20063;-73
2022/07/13 10:13:05;;;;;;;0.60;0.35;;;;;;;24.84;30.15;95415.88;5042107;28;20150;-72
2022/07/13 10:15:32;;;;;;;1.10;0.63;;;;;;;25.43;30.32;95426.28;5036358;28;20041;-72
2022/07/13 10:18:32;;;;;;;2.10;0.22;;;;;;;25.46;29.15;95433.63;5039639;28;20124;-72
2022/07/13 10:21:46;;;;;;;3.05;0.35;;;;;;;25.15;29.99;95415.81;5005808;28;20046;-72
2022/07/13 10:24:20;;;;;;;2.78;0.80;;;;;;;24.80;31.15;95423.69;4986039;28;20042;-72
2022/07/13 10:27:33;;;;;;;1.30;0.50;;;;;;;24.51;30.66;95419.63;5001462;28;20046;-72
2022/07/13 10:30:49;;;;;;;1.38;0.20;;;;;;;24.66;30.15;95415.00;5012015;28;20057;-74
2022/07/13 10:33:27;;;;;;;1.50;0.50;;;;;;;25.09;31.00;95406.41;4999598;28;20048;-73
2022/07/13 10:35:57;;;;;;;2.50;0.75;;;;;;;25.11;30.54;95393.56;5011555;28;20095;-73
2022/07/13 10:38:28;;;;;;;2.88;0.40;;;;;;;25.53;30.60;95393.97;4994218;28;20104;-74
2022/07/13 10:41:22;;;;;;;2.70;1.27;;;;;;;25.96;29.33;95403.09;5001152;28;20096;-72
2022/07/13 10:44:30;;;;;;;1.77;0.20;;;;;;;25.97;29.76;95408.13;5004864;28;20041;-72
2022/07/13 10:46:57;;;;;;;2.83;0.30;;;;;;;25.88;26.52;95410.00;5001908;28;20042;-72
2022/07/13 10:49:48;;;;;;;3.35;0.40;;;;;;;26.26;25.97;95396.00;4999707;28;20262;-72
2022/07/13 10:52:21;;;;;;;0.75;0.20;;;;;;;26.57;28.93;95397.66;5000739;28;20478;-73
2022/07/13 10:57:33;;;;;;;0.55;0.30;;;;;;;27.27;26.53;95401.63;4995499;28;20058;-73
2022/07/13 11:03:47;;;;;;;0.90;0.20;;;;;;;26.95;27.15;95391.56;5001515;28;20428;-73
2022/07/13 11:06:25;;;;;;;0.63;0.20;;;;;;;26.76;28.02;95394.63;5001217;28;20044;-73
2022/07/13 11:09:07;;;;;;;1.80;0.20;;;;;;;26.80;27.57;95388.31;5007406;28;20130;-73
2022/07/13 11:11:51;;;;;;;0.63;0.22;;;;;;;27.08;28.55;95390.53;5008880;28;20041;-73
2022/07/13 11:14:40;;;;;;;2.22;0.30;;;;;;;27.34;26.64;95392.31;5004935;28;20054;-73
2022/07/13 11:17:24;;;;;;;0.93;0.30;;;;;;;27.20;26.15;95392.53;5019526;28;20046;-73
2022/07/13 11:20:09;;;;;;;0.40;0.20;;;;;;;26.81;26.50;95392.56;5025218;28;20134;-73
2022/07/13 11:25:48;;;;;;;1.70;0.60;;;;;;;27.67;24.87;95383.59;5044036;28;20131;-73
2022/07/13 11:29:24;;;;;;;1.50;0.10;;;;;;;27.98;25.78;95384.00;5044899;28;20772;-73
2022/07/13 11:32:07;;;;;;;0.30;0.13;;;;;;;27.72;25.06;95380.72;5029195;28;20047;-70
2022/07/13 11:35:06;;;;;;;0.98;0.30;;;;;;;27.37;24.63;95388.97;5034025;28;20108;-71
2022/07/13 11:37:46;;;;;;;0.63;0.25;;;;;;;26.88;27.68;95379.50;5034730;28;20080;-72
2022/07/13 11:40:46;;;;;;;0.93;0.43;;;;;;;26.32;27.98;95370.69;5049633;28;20065;-71
2022/07/13 11:43:13;;;;;;;2.08;0.98;;;;;;;25.95;30.20;95362.31;5041479;28;20107;-72
2022/07/13 11:46:20;;;;;;;1.50;0.55;;;;;;;26.71;30.32;95371.53;5030601;28;20104;-75
2022/07/13 11:48:47;;;;;;;0.98;0.30;;;;;;;27.44;26.21;95365.19;5025883;28;20047;-72
2022/07/13 11:51:14;;;;;;;1.75;0.30;;;;;;;27.29;26.53;95368.44;5029495;28;20038;-72
2022/07/13 11:54:07;;;;;;;3.45;0.40;;;;;;;26.84;27.43;95367.88;5040267;28;20056;-71
2022/07/13 11:57:28;;;;;;;2.58;0.30;;;;;;;26.81;26.86;95360.50;5004335;28;20120;-72
2022/07/13 12:00:10;;;;;;;1.42;0.30;;;;;;;26.89;26.61;95350.88;5044416;28;20049;-72
2022/07/13 12:02:39;;;;;;;2.78;0.40;;;;;;;27.43;26.75;95363.63;5036740;28;20093;-72
2022/07/13 12:05:12;;;;;;;5.97;0.30;;;;;;;27.69;26.07;95355.38;5050614;28;20052;-73
2022/07/13 12:08:00;;;;;;;0.65;0.10;;;;;;;27.84;26.41;95351.34;5047949;28;20063;-72
2022/07/13 12:10:27;;;;;;;0.35;0.17;;;;;;;28.09;27.30;95356.78;5051370;28;20048;-71
2022/07/13 12:12:58;;;;;;;1.25;0.10;;;;;;;27.49;26.23;95362.31;5047178;28;20045;-71
2022/07/13 12:15:25;;;;;;;0.70;0.20;;;;;;;27.02;27.00;95359.75;5041884;28;20036;-71
2022/07/13 12:17:53;;;;;;;0.47;0.20;;;;;;;26.82;25.63;95351.38;5044742;28;20044;-71
2022/07/13 12:20:22;;;;;;;0.68;0.35;;;;;;;26.86;26.34;95357.63;5033358;28;20057;-72